Time;durP1;ratioP1;P1;durP2;ratioP2;P2;SDS_P1;SDS_P2;PMS_P1;PMS_P2;Temp;Humidity;BMP_temperature;BMP_pressure;BME280_temperature;BME280_humidity;BME280_pressure;Samples;Min_cycle;Max_cycle;Signal;HPM_P1;HPM_P2
2022/12/12 00:00:54;;;;;;;;;;;;;;;;;;7368455;19;807;-66
2022/12/12 00:03:22;;;;;;;;;;;;;;;;;;7369259;19;790;-66
2022/12/12 00:05:50;;;;;;;;;;;;;;;;;;7368819;19;1341;-65
2022/12/12 00:08:18;;;;;;;;;;;;;;;;;;7368633;19;783;-66
2022/12/12 00:10:47;;;;;;;;;;;;;;;;;;7371592;19;1247;-66
2022/12/12 00:13:15;;;;;;;;;;;;;;;;;;7366342;19;1853;-66
2022/12/12 00:15:43;;;;;;;;;;;;;;;;;;7369784;19;828;-66
2022/12/12 00:18:11;;;;;;;;;;;;;;;;;;7366626;19;1892;-66
2022/12/12 00:20:39;;;;;;;;;;;;;;;;;;7368286;19;814;-66
2022/12/12 00:23:07;;;;;;;;;;;;;;;;;;7368991;19;1803;-65
2022/12/12 00:25:35;;;;;;;;;;;;;;;;;;7369457;19;814;-65
2022/12/12 00:28:04;;;;;;;;;;;;;;;;;;7365171;19;1318;-66
2022/12/12 00:30:32;;;;;;;;;;;;;;;;;;7367983;19;1860;-66
2022/12/12 00:33:00;;;;;;;;;;;;;;;;;;7366164;19;1841;-66
2022/12/12 00:35:28;;;;;;;;;;;;;;;;;;7369117;19;869;-65
2022/12/12 00:37:56;;;;;;;;;;;;;;;;;;7365298;19;1278;-65
2022/12/12 00:40:24;;;;;;;;;;;;;;;;;;7368217;19;791;-65
2022/12/12 00:42:52;;;;;;;;;;;;;;;;;;7367781;19;841;-66
2022/12/12 00:45:21;;;;;;;;;;;;;;;;;;7367425;19;810;-66
2022/12/12 00:47:49;;;;;;;;;;;;;;;;;;7364723;19;1262;-66
2022/12/12 00:50:17;;;;;;;;;;;;;;;;;;7367240;19;846;-66
2022/12/12 00:52:45;;;;;;;;;;;;;;;;;;7367326;19;1876;-66
2022/12/12 00:55:13;;;;;;;;;;;;;;;;;;7366975;19;782;-66
2022/12/12 00:57:41;;;;;;;;;;;;;;;;;;7363824;19;1282;-65
2022/12/12 01:00:11;;;;;;;;;;;;;;;;;;7366282;19;819;-66
2022/12/12 01:02:39;;;;;;;;;;;;;;;;;;7366546;19;831;-65
2022/12/12 01:05:09;;;;;;;;;;;;;;;;;;7367415;19;1307;-66
2022/12/12 01:07:37;;;;;;;;;;;;;;;;;;7363954;19;1520;-66
2022/12/12 01:10:05;;;;;;;;;;;;;;;;;;7367033;19;854;-66
2022/12/12 01:12:33;;;;;;;;;;;;;;;;;;7364341;19;1842;-66
2022/12/12 01:15:01;;;;;;;;;;;;;;;;;;7366855;19;791;-66
2022/12/12 01:17:34;;;;;;;;;;;;;;;;;;7362938;19;1353;-65
2022/12/12 01:20:02;;;;;;;;;;;;;;;;;;7367273;19;790;-66
2022/12/12 01:22:31;;;;;;;;;;;;;;;;;;7368632;19;1723;-63
2022/12/12 01:24:59;;;;;;;;;;;;;;;;;;7372715;19;842;-66
2022/12/12 01:27:27;;;;;;;;;;;;;;;;;;7376082;19;1240;-66
2022/12/12 01:30:00;;;;;;;;;;;;;;;;;;7379438;19;866;-66
2022/12/12 01:32:28;;;;;;;;;;;;;;;;;;7383538;19;1854;-65
2022/12/12 01:34:56;;;;;;;;;;;;;;;;;;7379325;19;864;-65
2022/12/12 01:37:25;;;;;;;;;;;;;;;;;;7365526;19;1459;-65
2022/12/12 01:39:53;;;;;;;;;;;;;;;;;;7363692;19;787;-65
2022/12/12 01:42:21;;;;;;;;;;;;;;;;;;7366424;19;859;-64
2022/12/12 01:44:49;;;;;;;;;;;;;;;;;;7365831;19;784;-66
2022/12/12 01:47:17;;;;;;;;;;;;;;;;;;7364234;19;1873;-66
2022/12/12 01:49:45;;;;;;;;;;;;;;;;;;7365093;19;807;-65
2022/12/12 01:52:13;;;;;;;;;;;;;;;;;;7365432;19;2121;-64
2022/12/12 01:54:41;;;;;;;;;;;;;;;;;;7365930;19;841;-65
2022/12/12 01:57:10;;;;;;;;;;;;;;;;;;7364435;19;1283;-66
2022/12/12 01:59:38;;;;;;;;;;;;;;;;;;7364377;19;1135;-65
2022/12/12 02:02:06;;;;;;;;;;;;;;;;;;7365581;19;821;-66
2022/12/12 02:04:34;;;;;;;;;;;;;;;;;;7367973;19;803;-66
2022/12/12 02:07:02;;;;;;;;;;;;;;;;;;7366598;19;1298;-66
2022/12/12 02:09:30;;;;;;;;;;;;;;;;;;7367528;19;813;-66
2022/12/12 02:11:58;;;;;;;;;;;;;;;;;;7368244;19;759;-65
2022/12/12 02:14:27;;;;;;;;;;;;;;;;;;7365275;19;1854;-66
2022/12/12 02:16:55;;;;;;;;;;;;;;;;;;7370727;19;1270;-66
2022/12/12 02:19:23;;;;;;;;;;;;;;;;;;7371257;19;886;-66
2022/12/12 02:21:51;;;;;;;;;;;;;;;;;;7371917;19;813;-64
2022/12/12 02:24:19;;;;;;;;;;;;;;;;;;7374991;19;1760;-65
2022/12/12 02:26:47;;;;;;;;;;;;;;;;;;7371084;19;1330;-65
2022/12/12 02:29:16;;;;;;;;;;;;;;;;;;7370047;19;813;-65
2022/12/12 02:31:44;;;;;;;;;;;;;;;;;;7371490;19;791;-66
2022/12/12 02:34:12;;;;;;;;;;;;;;;;;;7369579;19;1873;-65
2022/12/12 02:36:40;;;;;;;;;;;;;;;;;;7370812;19;1310;-67
2022/12/12 02:39:08;;;;;;;;;;;;;;;;;;7369346;19;991;-66
2022/12/12 02:41:36;;;;;;;;;;;;;;;;;;7370739;19;994;-65
2022/12/12 02:44:04;;;;;;;;;;;;;;;;;;7370915;19;1929;-66
2022/12/12 02:46:32;;;;;;;;;;;;;;;;;;7370200;19;1271;-65
2022/12/12 02:49:01;;;;;;;;;;;;;;;;;;7369425;19;829;-65
2022/12/12 02:51:29;;;;;;;;;;;;;;;;;;7370234;19;847;-66
2022/12/12 02:53:57;;;;;;;;;;;;;;;;;;7368218;19;1838;-67
2022/12/12 02:56:25;;;;;;;;;;;;;;;;;;7373240;19;1900;-68
2022/12/12 02:58:53;;;;;;;;;;;;;;;;;;7369693;19;852;-67
2022/12/12 03:01:21;;;;;;;;;;;;;;;;;;7370543;19;830;-66
2022/12/12 03:09:11;;;;;;;;;;;;;;;;;;7373616;19;1819;-66
2022/12/12 03:11:39;;;;;;;;;;;;;;;;;;7369994;19;913;-67
2022/12/12 03:14:07;;;;;;;;;;;;;;;;;;7368153;19;1841;-66
2022/12/12 03:16:35;;;;;;;;;;;;;;;;;;7372945;19;1957;-65
2022/12/12 03:19:03;;;;;;;;;;;;;;;;;;7367134;19;840;-66
2022/12/12 03:21:31;;;;;;;;;;;;;;;;;;7370466;19;732;-68
2022/12/12 03:23:59;;;;;;;;;;;;;;;;;;7368683;19;866;-67
2022/12/12 03:26:27;;;;;;;;;;;;;;;;;;7367411;19;1283;-65
2022/12/12 03:28:56;;;;;;;;;;;;;;;;;;7366281;19;871;-66
2022/12/12 03:31:24;;;;;;;;;;;;;;;;;;7370153;19;854;-67
2022/12/12 03:33:52;;;;;;;;;;;;;;;;;;7368080;19;1834;-66
2022/12/12 03:36:20;;;;;;;;;;;;;;;;;;7372845;19;1575;-65
2022/12/12 03:38:55;;;;;;;;;;;;;;;;;;7368364;19;799;-66
2022/12/12 03:41:23;;;;;;;;;;;;;;;;;;7373759;19;1766;-65
2022/12/12 03:43:51;;;;;;;;;;;;;;;;;;7368683;19;792;-64
2022/12/12 03:46:21;;;;;;;;;;;;;;;;;;7368657;19;1262;-65
2022/12/12 03:48:49;;;;;;;;;;;;;;;;;;7367929;19;813;-65
2022/12/12 03:51:17;;;;;;;;;;;;;;;;;;7368788;19;815;-65
2022/12/12 03:53:46;;;;;;;;;;;;;;;;;;7367994;19;1852;-65
2022/12/12 03:56:14;;;;;;;;;;;;;;;;;;7367885;19;1381;-66
2022/12/12 03:58:42;;;;;;;;;;;;;;;;;;7369390;19;798;-66
2022/12/12 04:01:10;;;;;;;;;;;;;;;;;;7368693;19;793;-66
2022/12/12 04:03:38;;;;;;;;;;;;;;;;;;7369255;19;864;-66
2022/12/12 04:12:57;;;;;;;;;;;;;;;;;;7368133;19;1082;-65
2022/12/12 04:14:15;;;;;;;;;;;;;;;;;;7367560;19;1858;-67
2022/12/12 04:16:44;;;;;;;;;;;;;;;;;;7367080;19;1278;-66
2022/12/12 04:19:12;;;;;;;;;;;;;;;;;;7366919;19;801;-66
2022/12/12 04:24:21;;;;;;;;;;;;;;;;;;7369896;19;803;-65
2022/12/12 04:26:49;;;;;;;;;;;;;;;;;;7374245;19;1309;-66
2022/12/12 04:29:17;;;;;;;;;;;;;;;;;;7374465;19;835;-66
2022/12/12 04:31:45;;;;;;;;;;;;;;;;;;7375613;19;823;-66
2022/12/12 04:34:13;;;;;;;;;;;;;;;;;;7373429;19;1853;-66
2022/12/12 04:36:42;;;;;;;;;;;;;;;;;;7366183;19;1283;-66
2022/12/12 04:39:10;;;;;;;;;;;;;;;;;;7366831;19;1775;-65
2022/12/12 04:41:38;;;;;;;;;;;;;;;;;;7367406;19;845;-67
2022/12/12 04:44:06;;;;;;;;;;;;;;;;;;7365484;19;839;-66
2022/12/12 04:46:36;;;;;;;;;;;;;;;;;;7366997;19;1267;-66
2022/12/12 04:49:04;;;;;;;;;;;;;;;;;;7367071;19;831;-66
2022/12/12 04:51:32;;;;;;;;;;;;;;;;;;7365589;19;862;-66
2022/12/12 04:54:00;;;;;;;;;;;;;;;;;;7366168;19;1842;-66
2022/12/12 04:56:28;;;;;;;;;;;;;;;;;;7366487;19;1275;-67
2022/12/12 04:58:56;;;;;;;;;;;;;;;;;;7366711;19;820;-66
2022/12/12 05:01:24;;;;;;;;;;;;;;;;;;7367190;19;863;-66
2022/12/12 05:03:53;;;;;;;;;;;;;;;;;;7366862;19;775;-66
2022/12/12 05:06:21;;;;;;;;;;;;;;;;;;7366223;19;1274;-64
2022/12/12 05:08:49;;;;;;;;;;;;;;;;;;7366322;19;776;-66
2022/12/12 05:11:17;;;;;;;;;;;;;;;;;;7369777;19;1830;-66
2022/12/12 05:13:46;;;;;;;;;;;;;;;;;;7366129;19;1846;-66
2022/12/12 05:16:14;;;;;;;;;;;;;;;;;;7366140;19;1332;-65
2022/12/12 05:18:42;;;;;;;;;;;;;;;;;;7366108;19;779;-65
2022/12/12 05:21:10;;;;;;;;;;;;;;;;;;7371092;19;1825;-65
2022/12/12 05:23:38;;;;;;;;;;;;;;;;;;7366030;19;779;-66
2022/12/12 05:26:06;;;;;;;;;;;;;;;;;;7365914;19;1267;-66
2022/12/12 05:28:34;;;;;;;;;;;;;;;;;;7370050;19;1826;-66
2022/12/12 05:31:02;;;;;;;;;;;;;;;;;;7365248;19;851;-65
2022/12/12 05:33:31;;;;;;;;;;;;;;;;;;7365706;19;1855;-65
2022/12/12 05:35:59;;;;;;;;;;;;;;;;;;7366034;19;1341;-66
2022/12/12 05:38:27;;;;;;;;;;;;;;;;;;7365313;19;819;-65
2022/12/12 05:40:55;;;;;;;;;;;;;;;;;;7366592;19;814;-65
2022/12/12 05:43:23;;;;;;;;;;;;;;;;;;7366637;19;817;-65
2022/12/12 05:45:51;;;;;;;;;;;;;;;;;;7365801;19;788;-67
2022/12/12 05:48:19;;;;;;;;;;;;;;;;;;7365179;19;829;-66
2022/12/12 05:50:48;;;;;;;;;;;;;;;;;;7371114;19;1773;-66
2022/12/12 05:53:16;;;;;;;;;;;;;;;;;;7372682;19;1851;-66
2022/12/12 05:55:44;;;;;;;;;;;;;;;;;;7372743;19;826;-65
2022/12/12 05:58:12;;;;;;;;;;;;;;;;;;7369932;19;1303;-66
2022/12/12 06:00:40;;;;;;;;;;;;;;;;;;7373475;19;1771;-65
2022/12/12 06:03:08;;;;;;;;;;;;;;;;;;7371736;19;833;-65
2022/12/12 06:05:36;;;;;;;;;;;;;;;;;;7371380;19;807;-67
2022/12/12 06:08:05;;;;;;;;;;;;;;;;;;7369125;19;1267;-66
2022/12/12 06:10:33;;;;;;;;;;;;;;;;;;7371629;19;771;-66
2022/12/12 06:13:01;;;;;;;;;;;;;;;;;;7371199;19;818;-66
2022/12/12 06:15:29;;;;;;;;;;;;;;;;;;7369730;19;1854;-66
2022/12/12 06:17:57;;;;;;;;;;;;;;;;;;7369009;19;1263;-67
2022/12/12 06:20:25;;;;;;;;;;;;;;;;;;7374007;19;1810;-66
2022/12/12 06:22:53;;;;;;;;;;;;;;;;;;7371332;19;831;-66
2022/12/12 06:25:22;;;;;;;;;;;;;;;;;;7371212;19;787;-66
2022/12/12 06:27:50;;;;;;;;;;;;;;;;;;7367786;19;1267;-66
2022/12/12 06:30:18;;;;;;;;;;;;;;;;;;7371199;19;854;-65
2022/12/12 06:32:46;;;;;;;;;;;;;;;;;;7370295;19;816;-65
2022/12/12 06:35:14;;;;;;;;;;;;;;;;;;7370043;19;1841;-66
2022/12/12 06:37:43;;;;;;;;;;;;;;;;;;7367754;19;1275;-70
2022/12/12 06:40:11;;;;;;;;;;;;;;;;;;7370531;19;916;-66
2022/12/12 06:42:39;;;;;;;;;;;;;;;;;;7370898;19;814;-66
2022/12/12 06:45:07;;;;;;;;;;;;;;;;;;7370114;19;851;-66
2022/12/12 06:47:36;;;;;;;;;;;;;;;;;;7368138;19;1321;-65
2022/12/12 06:50:04;;;;;;;;;;;;;;;;;;7372052;19;1790;-66
2022/12/12 06:52:32;;;;;;;;;;;;;;;;;;7370438;19;811;-67
2022/12/12 06:55:00;;;;;;;;;;;;;;;;;;7368828;19;1848;-66
2022/12/12 06:57:29;;;;;;;;;;;;;;;;;;7370513;19;1337;-66
2022/12/12 06:59:57;;;;;;;;;;;;;;;;;;7369292;19;854;-64
2022/12/12 07:02:25;;;;;;;;;;;;;;;;;;7367349;19;843;-63
2022/12/12 07:04:54;;;;;;;;;;;;;;;;;;7370845;19;834;-67
2022/12/12 07:07:22;;;;;;;;;;;;;;;;;;7368449;19;1295;-65
2022/12/12 07:09:50;;;;;;;;;;;;;;;;;;7368654;19;884;-66
2022/12/12 07:12:19;;;;;;;;;;;;;;;;;;7371088;19;851;-66
2022/12/12 07:14:47;;;;;;;;;;;;;;;;;;7370499;19;1853;-67
2022/12/12 07:17:15;;;;;;;;;;;;;;;;;;7373129;19;1527;-66
2022/12/12 07:19:43;;;;;;;;;;;;;;;;;;7373595;19;1747;-66
2022/12/12 07:22:11;;;;;;;;;;;;;;;;;;7381971;19;783;-66
2022/12/12 07:24:39;;;;;;;;;;;;;;;;;;7380317;19;806;-66
2022/12/12 07:27:07;;;;;;;;;;;;;;;;;;7379738;19;1349;-66
2022/12/12 07:29:36;;;;;;;;;;;;;;;;;;7381648;19;874;-65
2022/12/12 07:32:04;;;;;;;;;;;;;;;;;;7384100;19;1571;-64
2022/12/12 07:34:32;;;;;;;;;;;;;;;;;;7371965;19;1830;-64
2022/12/12 07:37:00;;;;;;;;;;;;;;;;;;7370026;19;1337;-65
2022/12/12 07:39:28;;;;;;;;;;;;;;;;;;7370133;19;810;-66
2022/12/12 07:41:56;;;;;;;;;;;;;;;;;;7371178;19;809;-65
2022/12/12 07:44:25;;;;;;;;;;;;;;;;;;7369992;19;805;-66
2022/12/12 07:46:53;;;;;;;;;;;;;;;;;;7370081;19;1321;-68
2022/12/12 07:49:21;;;;;;;;;;;;;;;;;;7370506;19;2055;-66
2022/12/12 07:51:49;;;;;;;;;;;;;;;;;;7370507;19;850;-65
2022/12/12 07:54:18;;;;;;;;;;;;;;;;;;7369590;19;1840;-66
2022/12/12 07:56:46;;;;;;;;;;;;;;;;;;7368745;19;1326;-67
2022/12/12 07:59:14;;;;;;;;;;;;;;;;;;7367161;19;799;-66
2022/12/12 08:01:42;;;;;;;;;;;;;;;;;;7369442;19;813;-66
2022/12/12 08:04:10;;;;;;;;;;;;;;;;;;7369050;19;816;-66
2022/12/12 08:06:38;;;;;;;;;;;;;;;;;;7368308;19;1283;-66
2022/12/12 08:09:07;;;;;;;;;;;;;;;;;;7369099;19;1009;-66
2022/12/12 08:11:35;;;;;;;;;;;;;;;;;;7369322;19;818;-65
2022/12/12 08:14:03;;;;;;;;;;;;;;;;;;7369670;19;1853;-65
2022/12/12 08:16:31;;;;;;;;;;;;;;;;;;7369717;19;1818;-67
2022/12/12 08:18:59;;;;;;;;;;;;;;;;;;7369025;19;850;-66
2022/12/12 08:21:28;;;;;;;;;;;;;;;;;;7369967;19;851;-66
2022/12/12 08:23:56;;;;;;;;;;;;;;;;;;7369342;19;812;-66
2022/12/12 08:26:24;;;;;;;;;;;;;;;;;;7368250;19;1282;-66
2022/12/12 08:28:53;;;;;;;;;;;;;;;;;;7367921;19;1017;-66
2022/12/12 08:31:21;;;;;;;;;;;;;;;;;;7369164;19;792;-66
2022/12/12 08:33:49;;;;;;;;;;;;;;;;;;7369072;19;878;-67
2022/12/12 08:36:17;;;;;;;;;;;;;;;;;;7368937;19;1849;-66
2022/12/12 08:38:45;;;;;;;;;;;;;;;;;;7371814;19;870;-65
2022/12/12 08:41:14;;;;;;;;;;;;;;;;;;7371260;19;856;-65
2022/12/12 08:43:42;;;;;;;;;;;;;;;;;;7371830;19;779;-67
2022/12/12 08:46:10;;;;;;;;;;;;;;;;;;7371399;19;1321;-65
2022/12/12 08:48:39;;;;;;;;;;;;;;;;;;7374339;19;1836;-64
2022/12/12 08:51:07;;;;;;;;;;;;;;;;;;7373562;19;1789;-66
2022/12/12 08:53:35;;;;;;;;;;;;;;;;;;7369299;19;808;-68
2022/12/12 08:56:03;;;;;;;;;;;;;;;;;;7365976;19;1841;-68
2022/12/12 08:58:31;;;;;;;;;;;;;;;;;;7368908;19;850;-66
2022/12/12 09:01:00;;;;;;;;;;;;;;;;;;7369924;19;893;-66
2022/12/12 09:03:28;;;;;;;;;;;;;;;;;;7368672;19;859;-67
2022/12/12 09:05:56;;;;;;;;;;;;;;;;;;7367823;19;1251;-67
2022/12/12 09:08:24;;;;;;;;;;;;;;;;;;7367647;19;759;-68
2022/12/12 09:10:52;;;;;;;;;;;;;;;;;;7366950;19;838;-67
2022/12/12 09:13:20;;;;;;;;;;;;;;;;;;7367090;19;819;-67
2022/12/12 09:15:49;;;;;;;;;;;;;;;;;;7365297;19;1857;-66
2022/12/12 09:18:17;;;;;;;;;;;;;;;;;;7362510;19;1267;-66
2022/12/12 09:20:46;;;;;;;;;;;;;;;;;;7370087;19;1697;-66
2022/12/12 09:23:15;;;;;;;;;;;;;;;;;;7366890;19;830;-67
2022/12/12 09:25:43;;;;;;;;;;;;;;;;;;7365128;19;818;-67
2022/12/12 09:28:11;;;;;;;;;;;;;;;;;;7361550;19;1294;-65
2022/12/12 09:30:39;;;;;;;;;;;;;;;;;;7366381;19;822;-65
2022/12/12 09:33:07;;;;;;;;;;;;;;;;;;7366618;19;811;-65
2022/12/12 09:35:36;;;;;;;;;;;;;;;;;;7365119;19;1849;-66
2022/12/12 09:38:04;;;;;;;;;;;;;;;;;;7363206;19;1334;-66
2022/12/12 09:40:32;;;;;;;;;;;;;;;;;;7366273;19;858;-66
2022/12/12 09:43:01;;;;;;;;;;;;;;;;;;7365926;19;832;-67
2022/12/12 09:45:29;;;;;;;;;;;;;;;;;;7370049;19;1560;-66
2022/12/12 09:47:57;;;;;;;;;;;;;;;;;;7362688;19;1329;-68
2022/12/12 09:50:26;;;;;;;;;;;;;;;;;;7365604;19;819;-65
2022/12/12 09:52:54;;;;;;;;;;;;;;;;;;7363365;19;871;-69
2022/12/12 09:55:22;;;;;;;;;;;;;;;;;;7363705;19;1845;-65
2022/12/12 09:57:50;;;;;;;;;;;;;;;;;;7362228;19;1279;-67
2022/12/12 10:00:18;;;;;;;;;;;;;;;;;;7365759;19;878;-67
2022/12/12 10:02:47;;;;;;;;;;;;;;;;;;7363473;19;811;-69
2022/12/12 10:05:15;;;;;;;;;;;;;;;;;;7366214;19;1579;-67
2022/12/12 10:07:43;;;;;;;;;;;;;;;;;;7363307;19;1959;-70
2022/12/12 10:10:11;;;;;;;;;;;;;;;;;;7367874;19;2033;-70
2022/12/12 10:12:39;;;;;;;;;;;;;;;;;;7369718;19;1792;-71
2022/12/12 10:15:08;;;;;;;;;;;;;;;;;;7365157;19;1857;-70
2022/12/12 10:17:36;;;;;;;;;;;;;;;;;;7363667;19;1254;-69
2022/12/12 10:20:05;;;;;;;;;;;;;;;;;;7368509;19;1811;-70
2022/12/12 10:22:33;;;;;;;;;;;;;;;;;;7365387;19;1798;-71
2022/12/12 10:25:01;;;;;;;;;;;;;;;;;;7365836;19;1637;-70
2022/12/12 10:27:29;;;;;;;;;;;;;;;;;;7365302;19;1231;-69
2022/12/12 10:29:57;;;;;;;;;;;;;;;;;;7363919;19;896;-70
2022/12/12 10:32:26;;;;;;;;;;;;;;;;;;7364565;19;860;-68
2022/12/12 10:34:54;;;;;;;;;;;;;;;;;;7362435;19;1861;-69
2022/12/12 10:37:22;;;;;;;;;;;;;;;;;;7367290;19;1290;-69
2022/12/12 10:39:50;;;;;;;;;;;;;;;;;;7372771;19;1768;-69
2022/12/12 10:42:19;;;;;;;;;;;;;;;;;;7370049;19;841;-68
2022/12/12 10:44:47;;;;;;;;;;;;;;;;;;7369928;19;845;-68
2022/12/12 10:47:15;;;;;;;;;;;;;;;;;;7368174;19;1349;-67
2022/12/12 10:49:43;;;;;;;;;;;;;;;;;;7371661;19;766;-69
2022/12/12 10:52:11;;;;;;;;;;;;;;;;;;7374660;19;1781;-69
2022/12/12 10:54:40;;;;;;;;;;;;;;;;;;7377169;19;1862;-69
2022/12/12 10:57:08;;;;;;;;;;;;;;;;;;7372699;19;1863;-69
2022/12/12 10:59:36;;;;;;;;;;;;;;;;;;7368817;19;838;-69
2022/12/12 11:02:04;;;;;;;;;;;;;;;;;;7371514;19;1823;-70
2022/12/12 11:04:32;;;;;;;;;;;;;;;;;;7370773;19;838;-68
2022/12/12 11:07:00;;;;;;;;;;;;;;;;;;7370527;19;1339;-68
2022/12/12 11:09:29;;;;;;;;;;;;;;;;;;7368722;19;791;-69
2022/12/12 11:11:57;;;;;;;;;;;;;;;;;;7371863;19;794;-70
2022/12/12 11:14:25;;;;;;;;;;;;;;;;;;7371683;19;816;-70
2022/12/12 11:16:53;;;;;;;;;;;;;;;;;;7368366;19;1811;-70
2022/12/12 11:19:22;;;;;;;;;;;;;;;;;;7369340;19;863;-70
2022/12/12 11:21:50;;;;;;;;;;;;;;;;;;7372905;19;1662;-69
2022/12/12 11:24:18;;;;;;;;;;;;;;;;;;7370592;19;873;-70
2022/12/12 11:26:46;;;;;;;;;;;;;;;;;;7370443;19;1282;-69
2022/12/12 11:29:14;;;;;;;;;;;;;;;;;;7370193;19;795;-71
2022/12/12 11:31:43;;;;;;;;;;;;;;;;;;7369973;19;806;-69
2022/12/12 11:34:11;;;;;;;;;;;;;;;;;;7374472;19;1737;-69
2022/12/12 11:36:39;;;;;;;;;;;;;;;;;;7368546;19;1840;-68
2022/12/12 11:39:07;;;;;;;;;;;;;;;;;;7368541;19;863;-68
2022/12/12 11:41:36;;;;;;;;;;;;;;;;;;7372632;19;1813;-69
2022/12/12 11:44:04;;;;;;;;;;;;;;;;;;7373748;19;1698;-69
2022/12/12 11:46:32;;;;;;;;;;;;;;;;;;7371548;19;1863;-69
2022/12/12 11:49:00;;;;;;;;;;;;;;;;;;7368042;19;1831;-69
2022/12/12 11:51:29;;;;;;;;;;;;;;;;;;7373376;19;1870;-70
2022/12/12 11:53:57;;;;;;;;;;;;;;;;;;7369120;19;787;-70
2022/12/12 11:56:25;;;;;;;;;;;;;;;;;;7371179;19;1866;-68
2022/12/12 11:58:53;;;;;;;;;;;;;;;;;;7368208;19;858;-68
2022/12/12 12:01:22;;;;;;;;;;;;;;;;;;7369086;19;853;-68
2022/12/12 12:03:53;;;;;;;;;;;;;;;;;;7366289;19;1114;-69
2022/12/12 12:06:21;;;;;;;;;;;;;;;;;;7368747;19;1345;-69
2022/12/12 12:08:49;;;;;;;;;;;;;;;;;;7367925;19;833;-69
2022/12/12 12:11:19;;;;;;;;;;;;;;;;;;7369575;19;715;-69
2022/12/12 12:13:47;;;;;;;;;;;;;;;;;;7367828;19;870;-68
2022/12/12 12:16:15;;;;;;;;;;;;;;;;;;7367128;19;1858;-69
2022/12/12 12:18:44;;;;;;;;;;;;;;;;;;7369156;19;2032;-68
2022/12/12 12:21:12;;;;;;;;;;;;;;;;;;7373561;19;1682;-68
2022/12/12 12:23:41;;;;;;;;;;;;;;;;;;7370504;19;1809;-69
2022/12/12 12:26:09;;;;;;;;;;;;;;;;;;7366608;19;1835;-70
2022/12/12 12:28:37;;;;;;;;;;;;;;;;;;7370773;19;1692;-68
2022/12/12 12:31:06;;;;;;;;;;;;;;;;;;7369748;19;1819;-68
2022/12/12 12:33:34;;;;;;;;;;;;;;;;;;7372024;19;1891;-70
2022/12/12 12:36:02;;;;;;;;;;;;;;;;;;7366975;19;1852;-68
2022/12/12 12:38:30;;;;;;;;;;;;;;;;;;7370697;19;2166;-68
2022/12/12 12:40:59;;;;;;;;;;;;;;;;;;7370931;19;1759;-70
2022/12/12 12:43:27;;;;;;;;;;;;;;;;;;7371079;19;1573;-69
2022/12/12 12:45:56;;;;;;;;;;;;;;;;;;7370784;19;1825;-67
2022/12/12 12:48:24;;;;;;;;;;;;;;;;;;7367210;19;2062;-69
2022/12/12 12:50:52;;;;;;;;;;;;;;;;;;7371478;19;1753;-69
2022/12/12 12:53:21;;;;;;;;;;;;;;;;;;7366880;19;869;-68
2022/12/12 12:55:49;;;;;;;;;;;;;;;;;;7367475;19;1833;-67
2022/12/12 12:58:17;;;;;;;;;;;;;;;;;;7364667;19;1276;-68
2022/12/12 13:00:45;;;;;;;;;;;;;;;;;;7364550;19;809;-68
2022/12/12 13:03:14;;;;;;;;;;;;;;;;;;7373877;19;1848;-69
2022/12/12 13:05:42;;;;;;;;;;;;;;;;;;7369712;19;795;-69
2022/12/12 13:08:11;;;;;;;;;;;;;;;;;;7364103;19;1332;-68
2022/12/12 13:10:39;;;;;;;;;;;;;;;;;;7367827;19;886;-69
2022/12/12 13:13:08;;;;;;;;;;;;;;;;;;7370555;19;2042;-70
2022/12/12 13:15:37;;;;;;;;;;;;;;;;;;7367064;19;1841;-68
2022/12/12 13:18:07;;;;;;;;;;;;;;;;;;7361430;19;1251;-70
2022/12/12 13:20:36;;;;;;;;;;;;;;;;;;7370714;19;1602;-69
2022/12/12 13:23:04;;;;;;;;;;;;;;;;;;7365740;19;835;-68
2022/12/12 13:25:32;;;;;;;;;;;;;;;;;;7367087;19;834;-68
2022/12/12 13:28:00;;;;;;;;;;;;;;;;;;7362502;19;1317;-68
2022/12/12 13:30:29;;;;;;;;;;;;;;;;;;7365021;19;855;-68
2022/12/12 13:32:57;;;;;;;;;;;;;;;;;;7369722;19;1794;-68
2022/12/12 13:35:25;;;;;;;;;;;;;;;;;;7364690;19;825;-69
2022/12/12 13:37:54;;;;;;;;;;;;;;;;;;7360875;19;1865;-68
2022/12/12 13:40:22;;;;;;;;;;;;;;;;;;7367680;19;755;-68
2022/12/12 13:42:51;;;;;;;;;;;;;;;;;;7366278;19;876;-69
2022/12/12 13:45:19;;;;;;;;;;;;;;;;;;7372804;19;2036;-69
2022/12/12 13:47:47;;;;;;;;;;;;;;;;;;7362372;19;1354;-69
2022/12/12 13:50:15;;;;;;;;;;;;;;;;;;7365071;19;862;-70
2022/12/12 13:52:43;;;;;;;;;;;;;;;;;;7365785;19;752;-69
2022/12/12 13:55:12;;;;;;;;;;;;;;;;;;7365819;19;809;-70
2022/12/12 13:57:40;;;;;;;;;;;;;;;;;;7361908;19;1838;-68
2022/12/12 14:00:08;;;;;;;;;;;;;;;;;;7365836;19;788;-69
2022/12/12 14:02:41;;;;;;;;;;;;;;;;;;7368932;19;1542;-69
2022/12/12 14:05:10;;;;;;;;;;;;;;;;;;7365586;19;774;-69
2022/12/12 14:07:38;;;;;;;;;;;;;;;;;;7366669;19;1726;-68
2022/12/12 14:10:07;;;;;;;;;;;;;;;;;;7369899;19;1620;-69
2022/12/12 14:12:36;;;;;;;;;;;;;;;;;;7370686;19;871;-68
2022/12/12 14:15:04;;;;;;;;;;;;;;;;;;7372742;19;1783;-69
2022/12/12 14:17:32;;;;;;;;;;;;;;;;;;7369532;19;1855;-69
2022/12/12 14:20:00;;;;;;;;;;;;;;;;;;7371977;19;890;-68
2022/12/12 14:22:29;;;;;;;;;;;;;;;;;;7372157;19;824;-70
2022/12/12 14:24:58;;;;;;;;;;;;;;;;;;7371414;19;857;-70
2022/12/12 14:27:26;;;;;;;;;;;;;;;;;;7369807;19;1327;-67
2022/12/12 14:29:54;;;;;;;;;;;;;;;;;;7369246;19;791;-67
2022/12/12 14:32:22;;;;;;;;;;;;;;;;;;7372050;19;1681;-66
2022/12/12 14:34:50;;;;;;;;;;;;;;;;;;7373524;19;1899;-66
2022/12/12 14:37:19;;;;;;;;;;;;;;;;;;7368212;19;1850;-68
2022/12/12 14:39:47;;;;;;;;;;;;;;;;;;7373209;19;1823;-68
2022/12/12 14:42:15;;;;;;;;;;;;;;;;;;7374816;19;1853;-68
2022/12/12 14:44:43;;;;;;;;;;;;;;;;;;7370679;19;858;-68
2022/12/12 14:47:11;;;;;;;;;;;;;;;;;;7370349;19;1279;-68
2022/12/12 14:49:39;;;;;;;;;;;;;;;;;;7370687;19;850;-69
2022/12/12 14:52:08;;;;;;;;;;;;;;;;;;7370887;19;802;-68
2022/12/12 14:54:36;;;;;;;;;;;;;;;;;;7370618;19;803;-69
2022/12/12 14:57:04;;;;;;;;;;;;;;;;;;7371237;19;2046;-68
2022/12/12 14:59:32;;;;;;;;;;;;;;;;;;7371887;19;1772;-68
2022/12/12 15:02:00;;;;;;;;;;;;;;;;;;7373833;19;1643;-67
2022/12/12 15:04:28;;;;;;;;;;;;;;;;;;7372756;19;1654;-68
2022/12/12 15:06:57;;;;;;;;;;;;;;;;;;7370615;19;1576;-67
2022/12/12 15:09:26;;;;;;;;;;;;;;;;;;7369253;19;795;-69
2022/12/12 15:11:55;;;;;;;;;;;;;;;;;;7372799;19;1772;-68
2022/12/12 15:14:24;;;;;;;;;;;;;;;;;;7370095;19;838;-68
2022/12/12 15:16:52;;;;;;;;;;;;;;;;;;7371791;19;1834;-69
2022/12/12 15:19:20;;;;;;;;;;;;;;;;;;7369388;19;1756;-70
2022/12/12 15:21:48;;;;;;;;;;;;;;;;;;7372983;19;1817;-69
2022/12/12 15:24:17;;;;;;;;;;;;;;;;;;7371372;19;1870;-69
2022/12/12 15:26:45;;;;;;;;;;;;;;;;;;7370585;19;1764;-68
2022/12/12 15:29:13;;;;;;;;;;;;;;;;;;7368439;19;1776;-68
2022/12/12 15:31:41;;;;;;;;;;;;;;;;;;7371126;19;1803;-67
2022/12/12 15:34:09;;;;;;;;;;;;;;;;;;7371875;19;1778;-68
2022/12/12 15:36:37;;;;;;;;;;;;;;;;;;7369050;19;1841;-67
2022/12/12 15:39:06;;;;;;;;;;;;;;;;;;7373696;19;1792;-69
2022/12/12 15:41:34;;;;;;;;;;;;;;;;;;7371958;19;1829;-69
2022/12/12 15:44:02;;;;;;;;;;;;;;;;;;7372995;19;1817;-68
2022/12/12 15:46:31;;;;;;;;;;;;;;;;;;7372250;19;1578;-69
2022/12/12 15:48:59;;;;;;;;;;;;;;;;;;7369890;19;1981;-69
2022/12/12 15:51:27;;;;;;;;;;;;;;;;;;7373786;19;1649;-70
2022/12/12 15:53:56;;;;;;;;;;;;;;;;;;7369204;19;862;-68
2022/12/12 15:56:24;;;;;;;;;;;;;;;;;;7368434;19;1842;-71
2022/12/12 15:58:53;;;;;;;;;;;;;;;;;;7366564;19;792;-69
2022/12/12 16:01:21;;;;;;;;;;;;;;;;;;7369504;19;822;-67
2022/12/12 16:03:49;;;;;;;;;;;;;;;;;;7367640;19;1681;-68
2022/12/12 16:06:17;;;;;;;;;;;;;;;;;;7367234;19;1327;-69
2022/12/12 16:08:45;;;;;;;;;;;;;;;;;;7367505;19;802;-69
2022/12/12 16:11:13;;;;;;;;;;;;;;;;;;7368376;19;829;-69
2022/12/12 16:13:43;;;;;;;;;;;;;;;;;;7367695;19;819;-69
2022/12/12 16:16:11;;;;;;;;;;;;;;;;;;7368595;19;1266;-70
2022/12/12 16:18:40;;;;;;;;;;;;;;;;;;7366457;19;1850;-67
2022/12/12 16:21:08;;;;;;;;;;;;;;;;;;7369107;19;859;-69
2022/12/12 16:23:36;;;;;;;;;;;;;;;;;;7368797;19;803;-69
2022/12/12 16:26:04;;;;;;;;;;;;;;;;;;7367647;19;1351;-69
2022/12/12 16:28:32;;;;;;;;;;;;;;;;;;7367855;19;862;-68
2022/12/12 16:31:01;;;;;;;;;;;;;;;;;;7367673;19;831;-66
2022/12/12 16:33:29;;;;;;;;;;;;;;;;;;7369452;19;1771;-67
2022/12/12 16:35:57;;;;;;;;;;;;;;;;;;7367036;19;834;-67
2022/12/12 16:38:25;;;;;;;;;;;;;;;;;;7364705;19;1850;-70
2022/12/12 16:40:53;;;;;;;;;;;;;;;;;;7367251;19;819;-68
2022/12/12 16:43:22;;;;;;;;;;;;;;;;;;7367758;19;810;-69
2022/12/12 16:45:50;;;;;;;;;;;;;;;;;;7367034;19;815;-68
2022/12/12 16:48:18;;;;;;;;;;;;;;;;;;7363971;19;1271;-69
2022/12/12 16:50:46;;;;;;;;;;;;;;;;;;7371274;19;1842;-68
2022/12/12 16:53:14;;;;;;;;;;;;;;;;;;7368495;19;803;-69
2022/12/12 16:55:43;;;;;;;;;;;;;;;;;;7368608;19;851;-70
2022/12/12 16:58:11;;;;;;;;;;;;;;;;;;7366021;19;1865;-70
2022/12/12 17:00:39;;;;;;;;;;;;;;;;;;7368120;19;806;-68
2022/12/12 17:03:07;;;;;;;;;;;;;;;;;;7376977;19;1651;-68
2022/12/12 17:05:37;;;;;;;;;;;;;;;;;;7389379;19;1185;-69
2022/12/12 17:08:07;;;;;;;;;;;;;;;;;;7384254;19;1294;-67
2022/12/12 17:10:35;;;;;;;;;;;;;;;;;;7390659;19;759;-68
2022/12/12 17:13:03;;;;;;;;;;;;;;;;;;7390692;19;980;-68
2022/12/12 17:15:31;;;;;;;;;;;;;;;;;;7391018;19;808;-68
2022/12/12 17:17:59;;;;;;;;;;;;;;;;;;7386152;19;2096;-64
2022/12/12 17:20:27;;;;;;;;;;;;;;;;;;7390788;19;1691;-69
2022/12/12 17:22:56;;;;;;;;;;;;;;;;;;7392313;19;2093;-68
2022/12/12 17:25:24;;;;;;;;;;;;;;;;;;7385284;19;960;-69
2022/12/12 17:27:52;;;;;;;;;;;;;;;;;;7387426;19;1561;-62
2022/12/12 17:30:20;;;;;;;;;;;;;;;;;;7387444;19;1091;-66